Time;durP1;ratioP1;P1;durP2;ratioP2;P2;SDS_P1;SDS_P2;PMS_P1;PMS_P2;Temp;Humidity;BMP_temperature;BMP_pressure;BME280_temperature;BME280_humidity;BME280_pressure;Samples;Min_cycle;Max_cycle;Signal;HPM_P1;HPM_P2
2022/04/13 00:00:18;;;;;;;480.55;336.95;;;;;;;12.12;36.24;101272.28;682560;28;46299;-68
2022/04/13 00:00:39;;;;;;;481.98;343.73;;;;;;;12.11;36.24;101276.00;684723;28;46556;-68
2022/04/13 00:01:05;;;;;;;483.52;355.85;;;;;;;12.10;36.36;101270.75;680275;28;138100;-68
2022/04/13 00:01:27;;;;;;;485.13;358.95;;;;;;;12.04;36.17;101266.88;686410;28;1598;-68
2022/04/13 00:01:48;;;;;;;481.40;344.38;;;;;;;12.06;36.15;101272.97;684753;28;20873;-69
2022/04/13 00:02:10;;;;;;;483.83;351.88;;;;;;;12.07;36.00;101277.38;685820;28;22389;-68
2022/04/13 00:02:32;;;;;;;484.38;349.02;;;;;;;12.05;36.33;101273.97;684832;28;44362;-68
2022/04/13 00:02:53;;;;;;;481.48;337.58;;;;;;;12.06;36.10;101275.66;684424;28;47416;-68
2022/04/13 00:03:14;;;;;;;479.38;330.33;;;;;;;12.05;36.16;101269.44;685852;28;21372;-68
2022/04/13 00:03:35;;;;;;;480.05;336.00;;;;;;;12.03;36.07;101267.91;685448;28;23481;-68
2022/04/13 00:03:57;;;;;;;484.75;360.25;;;;;;;12.00;36.53;101273.66;686234;28;23422;-68
2022/04/13 00:04:18;;;;;;;490.20;382.35;;;;;;;12.00;36.16;101273.66;684592;28;44294;-68
2022/04/13 00:04:39;;;;;;;489.05;375.40;;;;;;;11.99;36.21;101280.06;685707;28;22392;-68
2022/04/13 00:05:00;;;;;;;482.90;346.02;;;;;;;11.97;36.44;101276.72;685423;28;23537;-68
2022/04/13 00:05:23;;;;;;;484.05;359.92;;;;;;;11.94;36.26;101274.34;685166;28;20849;-68
2022/04/13 00:05:44;;;;;;;483.08;348.38;;;;;;;11.94;36.08;101282.47;683235;28;69229;-68
2022/04/13 00:06:05;;;;;;;483.80;349.23;;;;;;;11.93;36.49;101278.06;685605;28;24526;-68
2022/04/13 00:06:27;;;;;;;480.48;336.45;;;;;;;11.89;36.45;101274.84;686101;28;22408;-68
2022/04/13 00:06:48;;;;;;;483.23;350.67;;;;;;;11.88;36.39;101274.00;684128;28;46310;-68
2022/04/13 00:07:09;;;;;;;487.48;366.77;;;;;;;11.87;36.49;101275.00;682787;28;22540;-68
2022/04/13 00:07:30;;;;;;;484.40;357.40;;;;;;;11.88;36.69;101278.53;682686;28;22400;-68
2022/04/13 00:07:54;;;;;;;480.52;336.58;;;;;;;11.85;36.36;101277.06;680437;29;2314;-68
2022/04/13 00:08:15;;;;;;;481.63;339.80;;;;;;;11.85;36.45;101273.50;672644;29;115058;-68
2022/04/13 00:08:36;;;;;;;479.83;335.67;;;;;;;11.84;36.59;101271.81;675594;29;45283;-68
2022/04/13 00:08:58;;;;;;;484.73;358.60;;;;;;;11.83;36.72;101279.09;676426;29;19831;-68
2022/04/13 00:09:20;;;;;;;480.98;338.08;;;;;;;11.78;36.68;101273.34;678583;29;21312;-68
2022/04/13 00:09:41;;;;;;;484.60;340.95;;;;;;;11.83;36.56;101281.81;674700;29;44370;-68
2022/04/13 00:10:04;;;;;;;484.35;351.98;;;;;;;11.83;36.56;101279.09;678137;28;22397;-68
2022/04/13 00:10:26;;;;;;;484.80;357.20;;;;;;;11.81;36.66;101277.56;681102;28;67469;-68
2022/04/13 00:10:48;;;;;;;480.90;337.52;;;;;;;11.82;36.89;101280.09;681825;28;46327;-68
2022/04/13 00:11:10;;;;;;;478.45;331.35;;;;;;;11.82;36.88;101276.56;682057;28;46299;-69
2022/04/13 00:11:31;;;;;;;478.65;332.55;;;;;;;11.82;37.02;101281.97;682312;28;44250;-68
2022/04/13 00:11:54;;;;;;;481.10;348.52;;;;;;;11.83;36.71;101278.22;685784;28;22260;-68
2022/04/13 00:12:15;;;;;;;480.25;340.30;;;;;;;11.84;36.47;101277.22;683821;28;69231;-68
2022/04/13 00:12:37;;;;;;;482.20;351.75;;;;;;;11.83;36.65;101275.53;685681;28;22411;-68
2022/04/13 00:12:58;;;;;;;481.80;351.08;;;;;;;11.86;36.62;101281.44;678360;29;43225;-68
2022/04/13 00:13:20;;;;;;;481.27;343.17;;;;;;;11.86;36.53;101278.72;679824;29;21223;-68
2022/04/13 00:13:41;;;;;;;481.27;344.20;;;;;;;11.87;36.44;101275.00;679076;29;45282;-68
2022/04/13 00:14:02;;;;;;;482.67;349.55;;;;;;;11.87;36.69;101266.88;680292;29;21636;-69
2022/04/13 00:14:23;;;;;;;483.52;342.80;;;;;;;11.88;36.36;101273.13;676494;29;22264;-68
2022/04/13 00:14:48;;;;;;;484.17;344.60;;;;;;;11.87;36.35;101268.75;677105;29;22281;-68
2022/04/13 00:15:09;;;;;;;481.80;337.17;;;;;;;11.84;36.75;101278.06;677955;29;93192;-68
2022/04/13 00:15:30;;;;;;;481.70;339.20;;;;;;;11.83;36.96;101264.69;677829;29;21499;-67
2022/04/13 00:15:51;;;;;;;482.30;345.08;;;;;;;11.80;37.06;101270.44;678024;29;24337;-68
2022/04/13 00:16:13;;;;;;;481.80;341.90;;;;;;;11.80;37.02;101273.16;678796;28;22403;-68
2022/04/13 00:16:35;;;;;;;480.40;333.75;;;;;;;11.78;36.89;101267.91;680572;28;45245;-68
2022/04/13 00:16:56;;;;;;;482.65;344.60;;;;;;;11.79;36.62;101268.78;683134;28;45704;-68
2022/04/13 00:17:17;;;;;;;482.55;350.75;;;;;;;11.80;36.60;101276.72;682938;28;22165;-68
2022/04/13 00:17:38;;;;;;;483.25;346.48;;;;;;;11.80;36.88;101265.91;685756;28;23577;-68
2022/04/13 00:18:01;;;;;;;480.08;336.90;;;;;;;11.81;36.61;101267.56;685770;28;22444;-69
2022/04/13 00:18:22;;;;;;;482.05;343.50;;;;;;;11.81;36.48;101267.56;683462;28;67280;-68
2022/04/13 00:18:43;;;;;;;479.55;333.40;;;;;;;11.83;36.48;101267.41;685376;28;23461;-68
2022/04/13 00:19:05;;;;;;;480.70;335.08;;;;;;;11.86;36.54;101270.59;685464;28;22135;-68
2022/04/13 00:19:27;;;;;;;479.92;332.08;;;;;;;11.87;36.51;101272.31;685220;28;22383;-68
2022/04/13 00:19:48;;;;;;;479.10;326.98;;;;;;;11.88;36.43;101265.00;684711;28;45183;-68
2022/04/13 00:20:10;;;;;;;480.35;335.13;;;;;;;11.87;36.44;101272.31;685653;28;21683;-68
2022/04/13 00:20:31;;;;;;;480.93;339.27;;;;;;;11.88;36.55;101265.00;683522;28;69495;-68
2022/04/13 00:20:53;;;;;;;481.95;343.40;;;;;;;11.88;37.02;101270.44;682024;28;46471;-68
2022/04/13 00:21:14;;;;;;;481.05;337.95;;;;;;;11.87;36.79;101266.06;681909;28;46261;-68
2022/04/13 00:21:36;;;;;;;479.98;329.55;;;;;;;11.84;36.84;101259.13;681318;28;22481;-68
2022/04/13 00:21:57;;;;;;;481.92;335.88;;;;;;;11.88;36.49;101267.72;682949;28;24332;-68
2022/04/13 00:22:19;;;;;;;478.70;323.50;;;;;;;11.87;36.80;101269.59;677267;29;20282;-68
2022/04/13 00:22:40;;;;;;;478.40;327.83;;;;;;;11.88;36.40;101270.44;677455;29;47058;-68
2022/04/13 00:23:01;;;;;;;480.83;337.67;;;;;;;11.86;36.73;101265.19;681087;29;22761;-68
2022/04/13 00:23:22;;;;;;;480.67;335.50;;;;;;;11.87;36.84;101268.75;680105;29;22401;-70
2022/04/13 00:23:44;;;;;;;482.75;347.75;;;;;;;11.88;36.50;101265.00;680545;29;23540;-68
2022/04/13 00:24:06;;;;;;;482.33;345.33;;;;;;;11.88;36.82;101267.72;679927;28;46362;-68
2022/04/13 00:24:27;;;;;;;483.20;349.42;;;;;;;11.88;36.44;101268.59;682636;28;67164;-68
2022/04/13 00:24:49;;;;;;;484.10;349.65;;;;;;;11.89;36.74;101264.84;685594;28;23419;-68
2022/04/13 00:25:12;;;;;;;483.83;350.33;;;;;;;11.87;36.31;101264.19;685611;28;22354;-68
2022/04/13 00:25:38;;;;;;;482.65;342.20;;;;;;;11.89;36.63;101264.00;683008;28;90370;-68
2022/04/13 00:25:59;;;;;;;480.15;334.83;;;;;;;11.86;36.57;101262.47;681282;28;130765;-68
2022/04/13 00:26:21;;;;;;;484.38;356.67;;;;;;;11.84;36.46;101253.69;686189;28;22480;-68
2022/04/13 00:26:44;;;;;;;487.95;370.48;;;;;;;11.88;36.40;101263.16;684755;28;22426;-68
2022/04/13 00:27:06;;;;;;;482.63;339.58;;;;;;;11.85;36.75;101263.53;686618;28;13640;-68
2022/04/13 00:27:28;;;;;;;482.92;343.63;;;;;;;11.85;36.70;101263.53;684040;28;37637;-68
2022/04/13 00:27:50;;;;;;;486.48;367.92;;;;;;;11.84;36.52;101261.81;685417;28;46343;-68
2022/04/13 00:28:14;;;;;;;485.63;363.08;;;;;;;11.84;36.89;101260.97;687700;28;827;-68
2022/04/13 00:28:35;;;;;;;483.08;347.50;;;;;;;11.84;36.55;101256.41;680833;28;69315;-68
2022/04/13 00:28:56;;;;;;;481.63;347.80;;;;;;;11.82;36.73;101258.44;683320;28;21529;-68
2022/04/13 00:29:17;;;;;;;488.60;376.02;;;;;;;11.82;36.50;101263.84;681922;28;22542;-68
2022/04/13 00:29:39;;;;;;;487.95;366.42;;;;;;;11.80;36.79;101267.75;681973;28;21528;-68
2022/04/13 00:30:00;;;;;;;484.17;349.17;;;;;;;11.80;36.38;101260.50;682006;28;47354;-68
2022/04/13 00:30:21;;;;;;;477.95;330.33;;;;;;;11.79;36.62;101258.78;682486;28;22226;-68
2022/04/13 00:30:42;;;;;;;478.00;330.17;;;;;;;11.79;36.62;101258.78;684604;28;46320;-68
2022/04/13 00:31:04;;;;;;;478.83;328.83;;;;;;;11.78;36.37;101261.66;685628;28;22455;-69
2022/04/13 00:31:25;;;;;;;479.52;334.02;;;;;;;11.76;36.60;101255.59;684286;28;45030;-68
2022/04/13 00:31:46;;;;;;;483.67;351.92;;;;;;;11.77;36.64;101260.84;684361;28;20807;-68
2022/04/13 00:32:08;;;;;;;481.45;346.48;;;;;;;11.75;36.67;101254.72;685634;28;22380;-68
2022/04/13 00:32:32;;;;;;;480.55;340.20;;;;;;;11.75;36.82;101262.84;684519;28;44175;-68
2022/04/13 00:32:53;;;;;;;482.20;344.55;;;;;;;11.73;36.89;101257.59;683674;28;89716;-68
2022/04/13 00:33:15;;;;;;;480.75;333.45;;;;;;;11.72;36.61;101263.19;685532;28;22336;-68
2022/04/13 00:33:36;;;;;;;481.65;337.02;;;;;;;11.71;36.82;101259.66;685495;28;22375;-68
2022/04/13 00:33:58;;;;;;;483.50;349.60;;;;;;;11.71;37.04;101262.34;686019;28;22383;-68
2022/04/13 00:34:19;;;;;;;482.80;348.20;;;;;;;11.71;37.08;101265.06;684604;28;46424;-68
2022/04/13 00:34:41;;;;;;;484.80;354.58;;;;;;;11.71;37.03;101256.94;685280;28;23479;-68
2022/04/13 00:35:04;;;;;;;487.50;369.50;;;;;;;11.71;36.65;101265.06;684832;28;45230;-68
2022/04/13 00:35:26;;;;;;;482.55;347.23;;;;;;;11.71;36.92;101265.06;682503;28;92344;-68
2022/04/13 00:35:47;;;;;;;483.85;353.95;;;;;;;11.70;37.18;101265.22;684579;28;44368;-68
2022/04/13 00:36:08;;;;;;;484.05;353.58;;;;;;;11.68;36.96;101262.69;685881;28;24170;-68
2022/04/13 00:36:29;;;;;;;480.63;333.02;;;;;;;11.68;37.06;101261.88;685338;28;22428;-68
2022/04/13 00:36:51;;;;;;;477.83;319.58;;;;;;;11.68;37.23;101259.16;684880;28;23489;-68
2022/04/13 00:37:12;;;;;;;485.58;356.98;;;;;;;11.68;36.88;101261.88;684930;28;45271;-68
2022/04/13 00:37:33;;;;;;;486.48;368.17;;;;;;;11.65;37.10;101257.63;685441;28;21529;-68
2022/04/13 00:37:54;;;;;;;483.33;354.95;;;;;;;11.69;36.85;101260.81;685784;28;22453;-68
2022/04/13 00:38:19;;;;;;;485.75;360.40;;;;;;;11.69;36.96;101259.00;686194;28;1545;-68
2022/04/13 00:38:40;;;;;;;485.38;363.15;;;;;;;11.68;36.85;101261.88;681482;28;115151;-68
2022/04/13 00:39:01;;;;;;;483.25;347.40;;;;;;;11.70;36.92;101266.06;684913;28;22651;-68
2022/04/13 00:39:23;;;;;;;482.73;342.45;;;;;;;11.69;37.06;101260.81;685253;28;23434;-68
2022/04/13 00:39:45;;;;;;;486.73;349.83;;;;;;;11.70;36.91;101259.81;683314;28;22399;-68
2022/04/13 00:40:07;;;;;;;483.63;343.92;;;;;;;11.68;36.98;101257.28;684661;28;45052;-68
2022/04/13 00:40:28;;;;;;;482.23;340.48;;;;;;;11.69;36.90;101255.41;684608;28;44358;-68
2022/04/13 00:40:50;;;;;;;485.50;358.15;;;;;;;11.70;37.12;101263.34;680362;28;21752;-68
2022/04/13 00:41:13;;;;;;;485.73;354.35;;;;;;;11.70;36.95;101257.13;678581;29;69712;-68
2022/04/13 00:41:34;;;;;;;482.67;343.88;;;;;;;11.68;36.93;101249.16;679704;28;46436;-68
2022/04/13 00:41:56;;;;;;;481.90;341.48;;;;;;;11.72;36.74;101257.78;678341;28;65467;-68
2022/04/13 00:42:18;;;;;;;485.50;355.88;;;;;;;11.68;37.18;101254.59;679101;28;46169;-68
2022/04/13 00:42:40;;;;;;;486.25;357.00;;;;;;;11.70;36.91;101257.94;681314;28;22451;-68
2022/04/13 00:43:03;;;;;;;484.20;352.33;;;;;;;11.67;36.77;101252.03;683787;28;46271;-68
2022/04/13 00:43:24;;;;;;;485.38;350.45;;;;;;;11.68;37.17;101254.59;682768;28;92338;-68
2022/04/13 00:44:04;;;;;;;483.83;352.35;;;;;;;11.65;37.10;101251.38;685347;28;22540;-68
2022/04/13 00:44:27;;;;;;;480.02;325.30;;;;;;;11.67;37.00;101258.28;680620;28;138855;-68
2022/04/13 00:44:48;;;;;;;483.08;343.88;;;;;;;11.66;37.34;101256.63;684366;28;46436;-69
2022/04/13 00:45:09;;;;;;;488.20;367.60;;;;;;;11.68;37.20;101253.75;685693;28;21529;-68
2022/04/13 00:45:31;;;;;;;485.10;351.90;;;;;;;11.68;37.20;101253.75;685185;28;23377;-69
2022/04/13 00:45:52;;;;;;;484.07;345.73;;;;;;;11.68;37.03;101253.75;683748;28;69509;-68
2022/04/13 00:46:13;;;;;;;485.05;354.30;;;;;;;11.67;37.26;101257.47;685000;28;46228;-68
2022/04/13 00:46:35;;;;;;;485.77;357.05;;;;;;;11.68;37.18;101253.75;684024;28;22177;-68
2022/04/13 00:47:01;;;;;;;481.42;332.80;;;;;;;11.68;37.28;101254.59;685677;28;22251;-68
2022/04/13 00:47:22;;;;;;;485.13;356.40;;;;;;;11.67;37.13;101260.16;678144;28;138284;-68
2022/04/13 00:47:45;;;;;;;486.67;367.63;;;;;;;11.66;37.07;101258.47;682612;28;22595;-68
2022/04/13 00:48:08;;;;;;;485.65;361.33;;;;;;;11.66;37.31;101250.34;680960;28;67498;-68
2022/04/13 00:48:31;;;;;;;487.73;367.95;;;;;;;11.65;36.99;101257.63;679886;28;92241;-68
2022/04/13 00:48:52;;;;;;;487.48;362.73;;;;;;;11.66;37.08;101259.31;681010;28;69492;-68
2022/04/13 00:49:14;;;;;;;483.88;352.63;;;;;;;11.65;37.30;101263.03;684088;28;21524;-68
2022/04/13 00:49:36;;;;;;;487.77;358.88;;;;;;;11.65;37.40;101251.38;684814;28;23422;-68
2022/04/13 00:49:57;;;;;;;488.80;361.77;;;;;;;11.63;37.32;101253.41;683794;28;70312;-68
2022/04/13 00:50:20;;;;;;;483.88;356.05;;;;;;;11.63;37.21;101254.25;685745;28;21367;-68
2022/04/13 00:50:41;;;;;;;483.48;354.23;;;;;;;11.60;37.19;101259.16;683128;28;69456;-68
2022/04/13 00:51:06;;;;;;;484.20;358.10;;;;;;;11.59;37.63;101261.03;683441;28;68954;-68
2022/04/13 00:51:27;;;;;;;482.23;346.90;;;;;;;11.59;37.62;101255.59;683947;28;46402;-68
2022/04/13 00:51:48;;;;;;;484.95;356.08;;;;;;;11.58;37.56;101253.91;683468;28;46855;-68
2022/04/13 00:52:11;;;;;;;484.85;357.90;;;;;;;11.58;37.14;101258.47;685559;28;23429;-68
2022/04/13 00:52:34;;;;;;;483.05;347.92;;;;;;;11.56;37.22;101261.34;683675;28;45317;-68
2022/04/13 00:52:58;;;;;;;480.30;333.15;;;;;;;11.59;37.29;101265.59;681658;28;90838;-68
2022/04/13 00:53:20;;;;;;;480.17;333.15;;;;;;;11.57;37.34;101259.50;682482;28;114462;-68
2022/04/13 00:53:42;;;;;;;481.25;335.80;;;;;;;11.53;37.81;101256.28;684721;28;22470;-68
2022/04/13 00:54:04;;;;;;;483.52;352.70;;;;;;;11.51;37.59;101251.03;684445;28;45229;-68
2022/04/13 00:54:29;;;;;;;487.13;363.20;;;;;;;11.54;37.55;101264.22;685008;28;14624;-68
2022/04/13 00:54:51;;;;;;;482.45;346.42;;;;;;;11.52;37.42;101258.16;683090;28;69550;-68
2022/04/13 00:55:13;;;;;;;482.80;350.35;;;;;;;11.54;37.27;101256.13;684000;28;69529;-68
2022/04/13 00:55:37;;;;;;;482.10;344.30;;;;;;;11.52;37.47;101252.75;684581;28;47495;-68
2022/04/13 00:55:59;;;;;;;481.55;337.02;;;;;;;11.54;37.57;101258.81;683094;28;90760;-68
2022/04/13 00:56:23;;;;;;;479.40;324.85;;;;;;;11.52;37.47;101262.72;684782;28;46182;-68
2022/04/13 00:56:47;;;;;;;479.73;328.13;;;;;;;11.48;37.81;101259.50;681867;28;90684;-68
2022/04/13 00:57:11;;;;;;;479.77;331.42;;;;;;;11.50;37.87;101257.50;682915;28;93035;-68
2022/04/13 00:57:34;;;;;;;481.05;333.35;;;;;;;11.46;37.74;101256.13;682606;28;92434;-68
2022/04/13 00:57:57;;;;;;;483.30;344.55;;;;;;;11.48;37.56;101254.09;683726;28;69391;-68
2022/04/13 00:58:19;;;;;;;483.00;345.85;;;;;;;11.48;37.52;101250.56;684012;28;69445;-68
2022/04/13 00:58:44;;;;;;;482.48;342.48;;;;;;;11.48;37.52;101258.66;684490;28;45127;-68
2022/04/13 00:59:09;;;;;;;483.13;339.35;;;;;;;11.50;37.50;101257.50;682149;28;115247;-68
2022/04/13 00:59:31;;;;;;;484.10;345.48;;;;;;;11.48;37.53;101254.09;681025;28;115244;-68
2022/04/13 00:59:55;;;;;;;484.17;344.42;;;;;;;11.48;37.58;101261.38;684352;28;45233;-68
2022/04/13 01:00:16;;;;;;;482.50;341.30;;;;;;;11.48;38.00;101264.91;682953;28;93204;-68
2022/04/13 01:00:38;;;;;;;485.58;352.33;;;;;;;11.47;37.74;101265.94;684108;28;44418;-68
2022/04/13 01:01:01;;;;;;;482.23;334.88;;;;;;;11.46;37.61;101266.94;684709;28;47854;-69
2022/04/13 01:01:25;;;;;;;482.90;338.50;;;;;;;11.47;37.77;101265.94;683813;28;69075;-68
2022/04/13 01:01:48;;;;;;;483.60;343.48;;;;;;;11.43;37.77;101261.03;681959;28;92031;-68
2022/04/13 01:02:09;;;;;;;480.60;329.42;;;;;;;11.44;37.64;101266.28;683419;28;69410;-68
2022/04/13 01:02:31;;;;;;;478.98;323.42;;;;;;;11.44;37.96;101263.59;685542;28;23467;-68
2022/04/13 01:02:53;;;;;;;480.60;335.85;;;;;;;11.41;38.06;101261.22;684334;28;44357;-68
2022/04/13 01:03:15;;;;;;;482.70;342.48;;;;;;;11.41;38.02;101272.03;681616;28;45225;-68
2022/04/13 01:03:37;;;;;;;485.65;355.00;;;;;;;11.42;37.88;101268.28;681086;28;67475;-68
2022/04/13 01:04:01;;;;;;;485.70;354.73;;;;;;;11.41;37.74;101266.63;682779;28;21271;-68
2022/04/13 01:04:22;;;;;;;485.25;353.88;;;;;;;11.40;37.80;101269.50;680243;28;92391;-69
2022/04/13 01:04:44;;;;;;;482.67;343.10;;;;;;;11.40;38.00;101270.34;682481;28;22166;-68
2022/04/13 01:05:11;;;;;;;486.48;359.92;;;;;;;11.40;38.10;101269.50;683597;28;47030;-68
2022/04/13 01:05:33;;;;;;;485.35;344.80;;;;;;;11.38;37.82;101269.66;678510;28;139518;-69
2022/04/13 01:05:54;;;;;;;482.30;342.00;;;;;;;11.37;38.15;101265.25;681922;28;44416;-69
2022/04/13 01:06:16;;;;;;;479.50;329.90;;;;;;;11.35;38.14;101268.13;682483;28;24304;-68
2022/04/13 01:06:39;;;;;;;483.13;343.13;;;;;;;11.36;38.10;101263.56;680666;28;45289;-68
2022/04/13 01:07:01;;;;;;;483.35;342.27;;;;;;;11.36;37.99;101263.56;680858;28;68407;-69
2022/04/13 01:07:22;;;;;;;481.92;329.98;;;;;;;11.36;38.17;101274.38;674764;29;46765;-68
2022/04/13 01:07:44;;;;;;;483.07;348.43;;;;;;;11.33;38.35;101264.78;678090;29;21606;-68
2022/04/13 01:08:06;;;;;;;484.08;350.40;;;;;;;11.34;38.23;101271.00;676650;29;47063;-69
2022/04/13 01:08:28;;;;;;;480.10;327.20;;;;;;;11.36;38.29;101266.28;673574;29;43763;-69
2022/04/13 01:08:50;;;;;;;482.38;345.45;;;;;;;11.35;38.12;101267.31;674222;29;46382;-68
2022/04/13 01:09:12;;;;;;;481.15;348.02;;;;;;;11.33;38.24;101269.31;674570;29;47229;-69
2022/04/13 01:09:35;;;;;;;480.83;339.33;;;;;;;11.34;38.14;101271.00;676282;29;46293;-69
2022/04/13 01:09:56;;;;;;;486.50;352.33;;;;;;;11.35;38.25;101273.53;675900;29;69346;-69
2022/04/13 01:10:18;;;;;;;480.05;328.20;;;;;;;11.35;38.08;101265.44;681213;28;1442;-68
2022/04/13 01:10:40;;;;;;;479.80;326.63;;;;;;;11.34;38.37;101262.91;684303;28;46346;-69
2022/04/13 01:11:04;;;;;;;482.23;337.23;;;;;;;11.33;38.28;101266.59;683993;28;69461;-69
2022/04/13 01:11:27;;;;;;;480.73;325.33;;;;;;;11.28;38.67;101268.97;683134;28;93247;-68
2022/04/13 01:11:48;;;;;;;479.20;325.65;;;;;;;11.31;38.32;101269.47;682497;28;69406;-69
2022/04/13 01:12:09;;;;;;;481.48;334.90;;;;;;;11.30;38.24;101272.34;685258;28;21529;-69
2022/04/13 01:12:31;;;;;;;484.77;348.67;;;;;;;11.28;38.30;101268.97;685260;28;22385;-69
2022/04/13 01:12:52;;;;;;;482.70;339.83;;;;;;;11.29;38.66;101262.56;684255;28;45252;-69
2022/04/13 01:13:14;;;;;;;481.70;334.60;;;;;;;11.26;38.39;101265.59;684184;28;44366;-69
2022/04/13 01:13:38;;;;;;;480.02;327.40;;;;;;;11.27;38.56;101270.84;684931;28;21516;-69
2022/04/13 01:14:01;;;;;;;478.17;326.02;;;;;;;11.25;38.74;101278.25;682480;28;115064;-68
2022/04/13 01:14:22;;;;;;;480.30;333.75;;;;;;;11.23;38.69;101274.88;684207;28;45826;-68
2022/04/13 01:14:43;;;;;;;481.13;331.52;;;;;;;11.22;38.64;101272.34;684948;28;22293;-69
2022/04/13 01:15:05;;;;;;;479.52;329.90;;;;;;;11.20;38.74;101274.38;685712;28;21529;-69
2022/04/13 01:15:27;;;;;;;480.02;329.42;;;;;;;11.16;38.72;101276.59;684626;28;46306;-69
2022/04/13 01:15:49;;;;;;;481.92;338.92;;;;;;;11.13;38.81;101264.25;685776;28;1656;-68
2022/04/13 01:16:11;;;;;;;479.80;332.40;;;;;;;11.12;39.23;101269.81;684780;28;44338;-69
2022/04/13 01:16:32;;;;;;;480.35;324.55;;;;;;;11.10;39.01;101271.84;685289;28;22408;-68
2022/04/13 01:16:54;;;;;;;480.23;328.85;;;;;;;11.07;39.40;101274.91;684430;28;24330;-69
2022/04/13 01:17:15;;;;;;;480.35;330.73;;;;;;;11.05;39.19;101280.47;683917;28;45244;-69
2022/04/13 01:17:39;;;;;;;483.02;340.17;;;;;;;11.05;39.20;101280.47;683781;28;22366;-69
2022/04/13 01:18:00;;;;;;;478.58;325.23;;;;;;;11.03;38.69;101274.34;682943;28;90721;-68
2022/04/13 01:18:22;;;;;;;477.35;319.58;;;;;;;11.05;39.07;101277.75;681952;28;22232;-68
2022/04/13 01:18:43;;;;;;;478.15;319.02;;;;;;;11.02;38.81;101271.81;681412;28;45257;-68
2022/04/13 01:19:06;;;;;;;478.73;319.33;;;;;;;11.03;39.17;101268.94;682743;28;24365;-69
2022/04/13 01:19:27;;;;;;;478.98;320.75;;;;;;;11.03;38.88;101276.22;680819;28;69268;-69
2022/04/13 01:19:49;;;;;;;482.63;334.27;;;;;;;11.01;39.31;101271.00;681238;28;22380;-69
2022/04/13 01:20:11;;;;;;;481.73;332.45;;;;;;;11.00;39.64;101272.84;682604;28;46334;-69
2022/04/13 01:20:34;;;;;;;483.02;337.92;;;;;;;11.00;39.44;101277.41;683443;28;46306;-68
2022/04/13 01:20:57;;;;;;;481.65;332.58;;;;;;;10.97;39.57;101267.78;683871;28;69088;-69
2022/04/13 01:21:20;;;;;;;479.50;319.73;;;;;;;10.98;39.30;101276.72;684662;28;44380;-69
2022/04/13 01:21:45;;;;;;;476.65;307.80;;;;;;;10.96;39.45;101265.25;682564;28;69531;-69
2022/04/13 01:22:17;;;;;;;479.10;319.17;;;;;;;10.93;39.68;101274.53;682099;28;115086;-69
2022/04/13 01:22:38;;;;;;;480.35;331.10;;;;;;;10.91;39.36;101271.16;681231;28;137373;-69
2022/04/13 01:22:59;;;;;;;480.65;329.30;;;;;;;10.91;39.59;101272.97;685270;28;21428;-69
2022/04/13 01:23:20;;;;;;;480.35;325.67;;;;;;;10.89;39.32;101275.03;685342;28;23357;-69
2022/04/13 01:23:43;;;;;;;480.80;332.92;;;;;;;10.87;39.52;101269.78;679463;29;46005;-68
2022/04/13 01:24:04;;;;;;;477.65;325.38;;;;;;;10.86;39.60;101265.41;679297;29;46230;-68
2022/04/13 01:24:26;;;;;;;479.52;332.77;;;;;;;10.86;39.45;101273.50;679015;29;47161;-69
2022/04/13 01:24:47;;;;;;;478.90;327.50;;;;;;;10.84;39.56;101271.97;680176;29;22385;-69
2022/04/13 01:25:10;;;;;;;477.42;321.83;;;;;;;10.83;39.43;101268.44;679133;29;44383;-69
2022/04/13 01:25:31;;;;;;;479.55;325.65;;;;;;;10.82;39.39;101266.75;680783;28;46331;-68
2022/04/13 01:25:53;;;;;;;478.60;324.25;;;;;;;10.80;39.31;101266.91;685044;28;22482;-69
2022/04/13 01:26:14;;;;;;;479.80;329.90;;;;;;;10.80;39.68;101272.31;683964;28;69833;-69
2022/04/13 01:26:35;;;;;;;477.98;320.95;;;;;;;10.78;39.62;101271.63;684401;28;21556;-69
2022/04/13 01:26:57;;;;;;;475.33;306.33;;;;;;;10.78;39.99;101271.63;685219;28;21328;-69
2022/04/13 01:27:19;;;;;;;475.33;304.65;;;;;;;10.77;40.07;101272.63;685349;28;23513;-69
2022/04/13 01:27:40;;;;;;;478.80;317.73;;;;;;;10.77;39.89;101271.81;684294;28;46288;-69
2022/04/13 01:28:01;;;;;;;478.58;319.08;;;;;;;10.76;39.63;101265.53;685651;28;21543;-69
2022/04/13 01:28:22;;;;;;;479.27;314.52;;;;;;;10.77;39.72;101271.81;685517;28;18449;-69
2022/04/13 01:28:44;;;;;;;477.08;311.27;;;;;;;10.78;39.69;101273.47;684961;28;21276;-68
2022/04/13 01:29:06;;;;;;;477.58;317.92;;;;;;;10.77;40.06;101271.81;684868;28;47503;-68
2022/04/13 01:29:27;;;;;;;476.77;313.27;;;;;;;10.75;40.24;101274.66;684172;28;45248;-68
2022/04/13 01:29:49;;;;;;;478.45;314.60;;;;;;;10.77;39.88;101269.09;684616;28;23192;-69
2022/04/13 01:30:12;;;;;;;480.17;327.08;;;;;;;10.73;40.07;101265.03;684504;28;46105;-69
2022/04/13 01:30:33;;;;;;;477.30;316.75;;;;;;;10.78;40.03;101265.38;683383;28;69307;-69
2022/04/13 01:30:54;;;;;;;474.50;301.02;;;;;;;10.77;40.29;101269.94;685110;28;23595;-68
2022/04/13 01:31:16;;;;;;;476.42;306.55;;;;;;;10.76;40.10;101265.53;685306;28;22379;-69
2022/04/13 01:31:37;;;;;;;480.33;323.40;;;;;;;10.75;40.17;101268.41;683362;28;45225;-69
2022/04/13 01:31:59;;;;;;;475.98;308.02;;;;;;;10.74;40.28;101269.44;685647;28;22409;-69
2022/04/13 01:32:20;;;;;;;474.35;295.25;;;;;;;10.73;40.34;101265.84;684598;28;46171;-69
2022/04/13 01:32:41;;;;;;;474.75;301.80;;;;;;;10.74;39.90;101264.84;685040;28;22471;-68
2022/04/13 01:33:03;;;;;;;475.50;303.85;;;;;;;10.75;40.01;101265.69;684731;28;21501;-69
2022/04/13 01:33:27;;;;;;;477.70;303.77;;;;;;;10.75;39.84;101258.47;683866;28;46120;-69
2022/04/13 01:33:48;;;;;;;475.92;304.15;;;;;;;10.76;39.72;101265.53;682362;28;92395;-69
2022/04/13 01:34:09;;;;;;;476.98;313.15;;;;;;;10.79;39.69;101267.91;685490;28;20841;-69
2022/04/13 01:34:30;;;;;;;477.80;313.45;;;;;;;10.80;39.72;101266.91;683049;28;20815;-69
2022/04/13 01:34:53;;;;;;;477.02;314.88;;;;;;;10.77;39.87;101256.44;682431;28;21527;-69
2022/04/13 01:35:14;;;;;;;479.35;318.88;;;;;;;10.81;39.55;101262.34;681070;28;67530;-69
2022/04/13 01:35:35;;;;;;;478.10;319.00;;;;;;;10.82;39.59;101262.16;679756;29;23433;-69
2022/04/13 01:36:00;;;;;;;476.40;312.75;;;;;;;10.84;39.85;101258.47;679714;29;23440;-69
2022/04/13 01:36:22;;;;;;;476.92;311.75;;;;;;;10.84;39.56;101261.16;677416;28;114635;-69
2022/04/13 01:36:43;;;;;;;476.80;313.15;;;;;;;10.84;39.57;101261.16;681612;28;44383;-69
2022/04/13 01:37:04;;;;;;;477.05;314.23;;;;;;;10.84;39.68;101253.06;682819;28;22415;-69
2022/04/13 01:37:28;;;;;;;478.50;318.58;;;;;;;10.85;39.74;101254.75;683387;28;21275;-69
2022/04/13 01:37:49;;;;;;;477.67;315.48;;;;;;;10.87;39.62;101261.66;683117;28;90299;-69
2022/04/13 01:38:10;;;;;;;475.00;304.08;;;;;;;10.88;39.85;101260.66;685197;28;22378;-69
2022/04/13 01:38:31;;;;;;;477.65;315.25;;;;;;;10.88;39.75;101259.81;685460;28;23467;-69
2022/04/13 01:38:53;;;;;;;475.65;312.40;;;;;;;10.82;39.75;101256.75;685446;28;21511;-69
2022/04/13 01:39:14;;;;;;;475.48;307.10;;;;;;;10.82;40.00;101262.16;684446;28;70400;-69